Time;durP1;ratioP1;P1;durP2;ratioP2;P2;SDS_P1;SDS_P2;PMS_P1;PMS_P2;Temp;Humidity;BMP_temperature;BMP_pressure;BME280_temperature;BME280_humidity;BME280_pressure;Samples;Min_cycle;Max_cycle;Signal;HPM_P1;HPM_P2
2022/01/16 00:00:20;;;;;;;;;;;3.10;99.90;;;;;;6173651;23;20035;-88
2022/01/16 00:05:27;;;;;;;;;;;3.00;99.90;;;;;;6174964;23;19919;-88
2022/01/16 00:07:53;;;;;;;;;;;3.00;99.90;;;;;;6148053;23;19987;-88
2022/01/16 00:10:19;;;;;;;;;;;3.00;99.90;;;;;;6173687;23;19991;-88
2022/01/16 00:12:48;;;;;;;;;;;3.00;99.90;;;;;;6148486;23;20368;-88
2022/01/16 00:15:18;;;;;;;;;;;3.00;99.90;;;;;;6172544;23;20409;-88
2022/01/16 00:20:19;;;;;;;;;;;2.90;99.90;;;;;;6175007;23;20343;-88
2022/01/16 00:22:47;;;;;;;;;;;2.80;99.90;;;;;;6174697;23;19912;-88
2022/01/16 00:25:12;;;;;;;;;;;2.90;99.90;;;;;;6174877;23;19936;-88
2022/01/16 00:27:38;;;;;;;;;;;2.90;99.90;;;;;;6173363;23;19912;-89
2022/01/16 00:30:04;;;;;;;;;;;2.90;99.90;;;;;;6174278;23;19966;-88
2022/01/16 00:32:29;;;;;;;;;;;2.90;99.90;;;;;;6145270;23;19963;-89
2022/01/16 00:34:55;;;;;;;;;;;2.90;99.90;;;;;;6144517;23;19913;-89
2022/01/16 00:37:20;;;;;;;;;;;2.90;99.90;;;;;;6148002;23;19924;-89
2022/01/16 00:39:46;;;;;;;;;;;2.90;99.90;;;;;;6144122;23;19924;-89
2022/01/16 00:42:11;;;;;;;;;;;2.90;99.90;;;;;;6144893;23;20237;-89
2022/01/16 00:44:37;;;;;;;;;;;2.90;99.90;;;;;;6165584;23;19983;-89
2022/01/16 00:47:03;;;;;;;;;;;2.90;99.90;;;;;;6165994;23;19913;-88
2022/01/16 00:49:31;;;;;;;;;;;2.90;99.90;;;;;;6166982;23;19909;-88
2022/01/16 00:51:56;;;;;;;;;;;2.80;99.90;;;;;;6160052;23;20476;-89
2022/01/16 00:54:22;;;;;;;;;;;2.80;99.90;;;;;;6171040;23;19931;-89
2022/01/16 00:56:47;;;;;;;;;;;2.80;99.90;;;;;;6157823;23;20325;-88
2022/01/16 00:59:13;;;;;;;;;;;2.70;99.90;;;;;;6170902;23;20022;-88
2022/01/16 01:01:38;;;;;;;;;;;2.70;99.90;;;;;;6159055;23;19976;-89
2022/01/16 01:04:04;;;;;;;;;;;2.60;99.90;;;;;;6193926;23;19939;-89
2022/01/16 01:06:29;;;;;;;;;;;2.60;99.90;;;;;;6204472;23;19920;-89
2022/01/16 01:08:55;;;;;;;;;;;2.60;99.90;;;;;;6202582;23;20459;-89
2022/01/16 01:11:25;;;;;;;;;;;2.60;99.90;;;;;;6200710;23;19919;-88
2022/01/16 01:17:07;;;;;;;;;;;2.70;99.90;;;;;;6202814;23;19923;-88
2022/01/16 01:19:28;;;;;;;;;;;2.50;99.90;;;;;;6199434;23;19912;-87
2022/01/16 01:21:54;;;;;;;;;;;2.50;99.90;;;;;;6201562;23;20297;-88
2022/01/16 01:24:22;;;;;;;;;;;2.50;99.90;;;;;;6200443;23;19932;-88
2022/01/16 01:26:54;;;;;;;;;;;2.40;99.90;;;;;;6202837;23;20710;-87
2022/01/16 01:29:21;;;;;;;;;;;2.40;99.90;;;;;;6201364;23;19916;-87
2022/01/16 01:31:47;;;;;;;;;;;2.40;99.90;;;;;;6199967;23;19912;-89
2022/01/16 01:34:12;;;;;;;;;;;2.40;99.90;;;;;;6202599;23;19991;-87
2022/01/16 01:36:38;;;;;;;;;;;2.40;99.90;;;;;;6202481;23;20325;-87
2022/01/16 01:39:03;;;;;;;;;;;2.40;99.90;;;;;;6201982;23;20320;-87
2022/01/16 01:41:29;;;;;;;;;;;2.40;99.90;;;;;;6175146;23;19931;-87
2022/01/16 01:52:07;;;;;;;;;;;2.40;99.90;;;;;;6202163;23;20255;-87
2022/01/16 01:54:33;;;;;;;;;;;2.40;99.90;;;;;;6201785;23;20331;-88
2022/01/16 01:56:59;;;;;;;;;;;2.30;99.90;;;;;;6200766;23;19916;-87
2022/01/16 01:59:25;;;;;;;;;;;2.30;99.90;;;;;;6202256;23;19970;-87
2022/01/16 02:01:50;;;;;;;;;;;2.30;99.90;;;;;;6201553;23;19931;-88
2022/01/16 02:04:16;;;;;;;;;;;2.30;99.90;;;;;;6203621;23;19919;-88
2022/01/16 02:06:41;;;;;;;;;;;2.20;99.90;;;;;;6204901;23;20301;-88
2022/01/16 02:09:08;;;;;;;;;;;2.20;99.90;;;;;;6204490;23;19922;-87
2022/01/16 02:11:34;;;;;;;;;;;2.20;99.90;;;;;;6204234;23;19962;-87
2022/01/16 02:35:39;;;;;;;;;;;1.80;99.90;;;;;;6203592;23;19919;-87
2022/01/16 02:38:06;;;;;;;;;;;1.70;99.90;;;;;;6177535;23;20256;-87
2022/01/16 02:40:31;;;;;;;;;;;1.70;99.90;;;;;;6173969;23;19916;-88
2022/01/16 02:42:57;;;;;;;;;;;1.70;99.90;;;;;;6173883;23;20476;-88
2022/01/16 02:45:31;;;;;;;;;;;1.70;99.90;;;;;;6172575;23;19955;-88
2022/01/16 02:47:58;;;;;;;;;;;1.60;99.90;;;;;;6176196;23;20222;-88
2022/01/16 02:50:24;;;;;;;;;;;1.60;99.90;;;;;;6147330;23;19908;-88
2022/01/16 02:52:50;;;;;;;;;;;1.60;99.90;;;;;;6149412;23;19944;-88
2022/01/16 02:55:16;;;;;;;;;;;1.50;99.90;;;;;;6146473;23;19908;-89
2022/01/16 02:57:42;;;;;;;;;;;1.50;99.90;;;;;;6148667;23;20248;-89
2022/01/16 03:00:17;;;;;;;;;;;1.50;99.90;;;;;;6171832;23;19912;-88
2022/01/16 03:02:45;;;;;;;;;;;1.50;99.90;;;;;;6156469;23;19908;-89
2022/01/16 03:05:12;;;;;;;;;;;1.40;99.90;;;;;;6146105;23;20300;-88
2022/01/16 03:07:40;;;;;;;;;;;1.50;99.90;;;;;;6173144;23;19909;-88
2022/01/16 03:12:39;;;;;;;;;;;1.50;99.90;;;;;;6202912;23;19912;-89
2022/01/16 03:15:06;;;;;;;;;;;1.40;99.90;;;;;;6202155;23;20255;-88
2022/01/16 03:21:52;;;;;;;;;;;1.40;99.90;;;;;;6201067;23;19997;-88
2022/01/16 03:23:02;;;;;;;;;;;1.30;99.90;;;;;;6204036;23;20479;-88
2022/01/16 03:25:27;;;;;;;;;;;1.20;99.90;;;;;;6201916;23;19963;-89
2022/01/16 03:27:53;;;;;;;;;;;1.20;99.90;;;;;;6202624;23;20038;-88
2022/01/16 03:30:18;;;;;;;;;;;1.20;99.90;;;;;;6200700;23;19912;-88
2022/01/16 03:32:44;;;;;;;;;;;1.20;99.90;;;;;;6202580;23;20356;-88
2022/01/16 03:35:10;;;;;;;;;;;1.10;99.90;;;;;;6200599;23;19912;-88
2022/01/16 03:37:35;;;;;;;;;;;1.10;99.90;;;;;;6201641;23;19924;-88
2022/01/16 03:40:04;;;;;;;;;;;1.10;99.90;;;;;;6176632;23;19924;-87
2022/01/16 03:42:32;;;;;;;;;;;1.00;99.90;;;;;;6171248;23;19915;-88
2022/01/16 03:44:58;;;;;;;;;;;1.00;99.90;;;;;;6172724;23;19912;-88
2022/01/16 03:47:23;;;;;;;;;;;1.00;99.90;;;;;;6171132;23;20448;-88
2022/01/16 03:49:49;;;;;;;;;;;1.00;99.90;;;;;;6171750;23;19958;-87
2022/01/16 03:52:14;;;;;;;;;;;1.00;99.90;;;;;;6171403;23;19971;-89
2022/01/16 03:54:40;;;;;;;;;;;0.90;99.90;;;;;;6173308;23;19932;-87
2022/01/16 03:57:05;;;;;;;;;;;0.90;99.90;;;;;;6170741;23;19955;-88
2022/01/16 03:59:31;;;;;;;;;;;0.90;99.90;;;;;;6174264;23;19909;-88
2022/01/16 04:01:57;;;;;;;;;;;1.00;99.90;;;;;;6169294;23;19932;-88
2022/01/16 04:04:25;;;;;;;;;;;0.90;99.90;;;;;;6171525;23;20027;-88
2022/01/16 04:06:51;;;;;;;;;;;0.80;99.90;;;;;;6170786;23;19935;-87
2022/01/16 04:09:16;;;;;;;;;;;0.80;99.90;;;;;;6171563;23;19909;-87
2022/01/16 04:11:51;;;;;;;;;;;0.80;99.90;;;;;;6158755;23;20230;-87
2022/01/16 04:14:23;;;;;;;;;;;0.80;99.90;;;;;;6166571;23;20231;-87
2022/01/16 04:16:49;;;;;;;;;;;0.80;99.90;;;;;;6147512;23;19917;-87
2022/01/16 04:19:14;;;;;;;;;;;0.80;99.90;;;;;;6142615;23;19909;-87
2022/01/16 04:21:40;;;;;;;;;;;0.80;99.90;;;;;;6145916;23;20587;-87
2022/01/16 04:24:05;;;;;;;;;;;0.70;99.90;;;;;;6141346;23;19922;-87
2022/01/16 04:26:31;;;;;;;;;;;0.70;99.90;;;;;;6153305;23;19963;-88
2022/01/16 04:28:56;;;;;;;;;;;0.70;99.90;;;;;;6141096;23;19913;-87
2022/01/16 04:31:22;;;;;;;;;;;0.70;99.90;;;;;;6148090;23;20411;-87
2022/01/16 04:33:47;;;;;;;;;;;0.60;99.90;;;;;;6148796;23;20107;-87
2022/01/16 04:36:13;;;;;;;;;;;0.60;99.90;;;;;;6147539;23;19916;-88
2022/01/16 04:38:44;;;;;;;;;;;0.80;99.90;;;;;;6149855;23;19965;-87
2022/01/16 04:43:55;;;;;;;;;;;0.90;99.90;;;;;;6172912;23;19966;-88
2022/01/16 04:46:27;;;;;;;;;;;0.70;99.90;;;;;;6170487;23;19912;-87
2022/01/16 04:48:53;;;;;;;;;;;0.60;99.90;;;;;;6152441;23;19908;-87
2022/01/16 04:51:20;;;;;;;;;;;0.50;99.90;;;;;;6157938;23;19912;-87
2022/01/16 04:53:46;;;;;;;;;;;0.50;99.90;;;;;;6165051;23;20324;-88
2022/01/16 04:56:11;;;;;;;;;;;0.50;99.90;;;;;;6172135;23;19924;-87
2022/01/16 04:58:37;;;;;;;;;;;0.50;99.90;;;;;;6171261;23;20402;-87
2022/01/16 05:01:04;;;;;;;;;;;0.50;99.90;;;;;;6172040;23;20317;-88
2022/01/16 05:03:30;;;;;;;;;;;0.40;99.90;;;;;;6196227;23;19909;-87
2022/01/16 05:05:56;;;;;;;;;;;0.40;99.90;;;;;;6170700;23;20250;-88
2022/01/16 05:08:22;;;;;;;;;;;0.40;99.90;;;;;;6172359;23;19916;-87
2022/01/16 05:10:48;;;;;;;;;;;0.40;99.90;;;;;;6171405;23;19955;-88
2022/01/16 05:18:32;;;;;;;;;;;0.40;99.90;;;;;;6173271;23;19936;-87
2022/01/16 05:20:58;;;;;;;;;;;0.50;99.90;;;;;;6170126;23;19908;-87
2022/01/16 05:23:27;;;;;;;;;;;0.50;99.90;;;;;;6196023;23;19908;-87
2022/01/16 05:25:52;;;;;;;;;;;0.50;99.90;;;;;;6170257;23;19935;-87
2022/01/16 05:28:18;;;;;;;;;;;0.50;99.90;;;;;;6171672;23;19913;-87
2022/01/16 05:30:44;;;;;;;;;;;0.50;99.90;;;;;;6171761;23;19916;-87
2022/01/16 05:33:09;;;;;;;;;;;0.50;99.90;;;;;;6171771;23;20248;-87
2022/01/16 05:35:35;;;;;;;;;;;0.50;99.90;;;;;;6173252;23;19919;-87
2022/01/16 05:38:01;;;;;;;;;;;0.50;99.90;;;;;;6200018;23;19984;-88
2022/01/16 05:40:26;;;;;;;;;;;0.40;99.90;;;;;;6163941;23;19920;-87
2022/01/16 05:42:52;;;;;;;;;;;0.30;99.90;;;;;;6173916;23;20249;-88
2022/01/16 05:45:17;;;;;;;;;;;0.40;99.90;;;;;;6173537;23;19908;-87
2022/01/16 05:47:43;;;;;;;;;;;0.30;99.90;;;;;;6173461;23;20242;-87
2022/01/16 05:50:09;;;;;;;;;;;0.30;99.90;;;;;;6162661;23;20325;-87
2022/01/16 05:52:34;;;;;;;;;;;0.30;99.90;;;;;;6175895;23;19916;-88
2022/01/16 05:55:00;;;;;;;;;;;0.20;99.90;;;;;;6173712;23;20277;-87
2022/01/16 05:57:25;;;;;;;;;;;0.10;99.90;;;;;;6172129;23;19924;-87
2022/01/16 05:59:51;;;;;;;;;;;0.10;99.90;;;;;;6197651;23;19908;-88
2022/01/16 06:02:16;;;;;;;;;;;0.10;99.90;;;;;;6196757;23;19958;-88
2022/01/16 06:04:44;;;;;;;;;;;0.10;99.90;;;;;;6173387;23;19947;-88
2022/01/16 06:07:10;;;;;;;;;;;0.10;99.90;;;;;;6172252;23;19916;-89
2022/01/16 06:09:35;;;;;;;;;;;0.10;99.90;;;;;;6172771;23;19978;-88
2022/01/16 06:12:01;;;;;;;;;;;0.10;99.90;;;;;;6172539;23;19980;-88
2022/01/16 06:14:26;;;;;;;;;;;0.00;99.90;;;;;;6173421;23;19912;-88
2022/01/16 06:16:52;;;;;;;;;;;0.00;99.90;;;;;;6173951;23;19917;-88
2022/01/16 06:19:19;;;;;;;;;;;0.00;99.90;;;;;;6174415;23;19912;-88
2022/01/16 06:21:46;;;;;;;;;;;0.00;99.90;;;;;;6174546;23;19931;-88
2022/01/16 06:24:11;;;;;;;;;;;0.00;99.90;;;;;;6173137;23;19912;-88
2022/01/16 06:26:37;;;;;;;;;;;0.00;99.90;;;;;;6184012;23;19983;-88
2022/01/16 06:29:02;;;;;;;;;;;0.00;99.90;;;;;;6154837;23;19909;-88
2022/01/16 06:31:28;;;;;;;;;;;-0.10;99.90;;;;;;6171717;23;19916;-89
2022/01/16 06:33:53;;;;;;;;;;;-0.10;99.90;;;;;;6171618;23;19988;-85
2022/01/16 06:36:19;;;;;;;;;;;-0.10;99.90;;;;;;6173905;23;19999;-84
2022/01/16 06:38:46;;;;;;;;;;;-0.20;99.90;;;;;;6165870;23;19947;-84
2022/01/16 06:41:11;;;;;;;;;;;-0.20;99.90;;;;;;6148621;23;19988;-85
2022/01/16 06:43:37;;;;;;;;;;;-0.20;99.90;;;;;;6148326;23;19939;-85
2022/01/16 06:46:02;;;;;;;;;;;-0.10;99.90;;;;;;6145440;23;19913;-85
2022/01/16 06:48:28;;;;;;;;;;;-0.10;99.90;;;;;;6142311;23;20392;-84
2022/01/16 06:50:53;;;;;;;;;;;-0.20;99.90;;;;;;6148363;23;19916;-85
2022/01/16 06:53:19;;;;;;;;;;;-0.20;99.90;;;;;;6145584;23;20277;-84
2022/01/16 06:55:44;;;;;;;;;;;-0.10;99.90;;;;;;6149372;23;19919;-84
2022/01/16 06:58:10;;;;;;;;;;;-0.20;99.90;;;;;;6168632;23;20554;-84
2022/01/16 07:00:35;;;;;;;;;;;-0.20;99.90;;;;;;6149982;23;19912;-84
2022/01/16 07:03:01;;;;;;;;;;;-0.30;99.90;;;;;;6169297;23;19916;-84
2022/01/16 07:05:26;;;;;;;;;;;-0.30;99.90;;;;;;6148786;23;19919;-84
2022/01/16 07:07:52;;;;;;;;;;;-0.20;99.90;;;;;;6146106;23;19923;-84
2022/01/16 07:10:18;;;;;;;;;;;-0.20;99.90;;;;;;6143746;23;20309;-84
2022/01/16 07:12:43;;;;;;;;;;;-0.10;99.90;;;;;;6147166;23;19913;-82
2022/01/16 07:15:09;;;;;;;;;;;-0.20;99.90;;;;;;6166543;23;19987;-83
2022/01/16 07:17:35;;;;;;;;;;;-0.30;99.90;;;;;;6123731;23;19920;-85
2022/01/16 07:20:00;;;;;;;;;;;-0.30;99.90;;;;;;6146003;23;19919;-83
2022/01/16 07:22:29;;;;;;;;;;;-0.20;99.90;;;;;;6115705;23;19917;-86
2022/01/16 07:24:54;;;;;;;;;;;-0.20;99.90;;;;;;6109839;23;19967;-85
2022/01/16 07:27:20;;;;;;;;;;;-0.20;99.90;;;;;;6148262;23;20344;-84
2022/01/16 07:29:48;;;;;;;;;;;-0.10;99.90;;;;;;6145206;23;20365;-85
2022/01/16 07:32:16;;;;;;;;;;;-0.20;99.90;;;;;;6149739;23;19913;-84
2022/01/16 07:34:42;;;;;;;;;;;-0.10;99.90;;;;;;6112125;23;20292;-85
2022/01/16 07:37:07;;;;;;;;;;;-0.10;99.90;;;;;;6147150;23;19917;-84
2022/01/16 07:39:33;;;;;;;;;;;-0.10;99.90;;;;;;6154071;23;19975;-84
2022/01/16 07:41:58;;;;;;;;;;;-0.10;99.90;;;;;;6191822;23;19928;-84
2022/01/16 07:44:24;;;;;;;;;;;-0.10;99.90;;;;;;6158920;23;19909;-84
2022/01/16 07:46:49;;;;;;;;;;;-0.10;99.90;;;;;;6192891;23;19912;-84
2022/01/16 07:49:15;;;;;;;;;;;0.00;99.90;;;;;;6155464;23;19912;-84
2022/01/16 07:51:40;;;;;;;;;;;0.00;99.90;;;;;;6151109;23;19959;-84
2022/01/16 07:54:06;;;;;;;;;;;0.00;99.90;;;;;;6144820;23;19912;-84
2022/01/16 07:56:31;;;;;;;;;;;0.00;99.90;;;;;;6142043;23;19959;-86
2022/01/16 07:58:57;;;;;;;;;;;0.10;99.90;;;;;;6142950;23;19987;-84
2022/01/16 08:01:22;;;;;;;;;;;0.10;99.90;;;;;;6143061;23;20251;-82
2022/01/16 08:03:48;;;;;;;;;;;0.20;99.90;;;;;;6190454;23;19912;-85
2022/01/16 08:06:15;;;;;;;;;;;0.20;99.90;;;;;;6131326;23;20358;-84
2022/01/16 08:08:40;;;;;;;;;;;0.10;99.90;;;;;;6115100;23;19913;-84
2022/01/16 08:11:08;;;;;;;;;;;0.30;99.90;;;;;;6144919;23;19982;-84
2022/01/16 08:13:35;;;;;;;;;;;0.20;99.90;;;;;;6175988;23;20326;-84
2022/01/16 08:16:02;;;;;;;;;;;0.20;99.90;;;;;;6195426;23;19991;-83
2022/01/16 08:18:28;;;;;;;;;;;0.30;99.90;;;;;;6172696;23;19912;-87
2022/01/16 08:20:53;;;;;;;;;;;0.30;99.90;;;;;;6195133;23;19927;-84
2022/01/16 08:23:25;;;;;;;;;;;0.30;99.90;;;;;;6172542;23;19912;-85
2022/01/16 08:26:01;;;;;;;;;;;;;;;;;;;;;
2022/01/16 08:28:27;;;;;;;;;;;0.30;99.90;;;;;;6138672;23;19912;-84
2022/01/16 08:31:03;;;;;;;;;;;0.30;99.90;;;;;;6103542;23;20055;-85
2022/01/16 08:33:38;;;;;;;;;;;0.30;99.90;;;;;;6065716;23;19917;-85
2022/01/16 08:36:54;;;;;;;;;;;0.40;99.90;;;;;;6099034;23;19932;-86
2022/01/16 08:39:21;;;;;;;;;;;0.50;99.90;;;;;;6169541;23;20654;-85
2022/01/16 08:41:47;;;;;;;;;;;0.50;99.90;;;;;;6159607;23;19912;-84
2022/01/16 08:44:13;;;;;;;;;;;0.50;99.90;;;;;;6156449;23;19912;-86
2022/01/16 08:46:38;;;;;;;;;;;0.50;99.90;;;;;;6173264;23;19912;-85
2022/01/16 08:49:04;;;;;;;;;;;0.40;99.90;;;;;;6200075;23;19912;-85
2022/01/16 08:51:29;;;;;;;;;;;0.50;99.90;;;;;;6198741;23;19974;-85
2022/01/16 08:53:55;;;;;;;;;;;0.50;99.90;;;;;;6187573;23;19916;-85
2022/01/16 08:56:23;;;;;;;;;;;0.50;99.90;;;;;;6160455;23;20002;-85
2022/01/16 08:58:49;;;;;;;;;;;0.60;99.90;;;;;;6148164;23;19912;-84
2022/01/16 09:01:15;;;;;;;;;;;0.60;99.90;;;;;;6127083;23;19938;-85
2022/01/16 09:03:41;;;;;;;;;;;0.60;99.90;;;;;;6185494;23;19946;-86
2022/01/16 09:06:06;;;;;;;;;;;0.60;99.90;;;;;;6169714;23;19971;-86
2022/01/16 09:08:35;;;;;;;;;;;0.60;99.90;;;;;;6161302;23;19916;-86
2022/01/16 09:11:02;;;;;;;;;;;0.70;99.90;;;;;;6146291;23;19912;-86
2022/01/16 09:13:27;;;;;;;;;;;0.80;99.90;;;;;;6190363;23;19959;-84
2022/01/16 09:15:53;;;;;;;;;;;0.90;99.90;;;;;;6160309;23;19912;-85
2022/01/16 09:18:18;;;;;;;;;;;0.90;99.90;;;;;;6191550;23;19978;-86
2022/01/16 09:20:44;;;;;;;;;;;1.00;99.90;;;;;;6202245;23;19975;-85
2022/01/16 09:23:11;;;;;;;;;;;1.00;99.90;;;;;;6190249;23;19962;-85
2022/01/16 09:25:36;;;;;;;;;;;1.00;99.90;;;;;;6177285;23;19962;-86
2022/01/16 09:28:02;;;;;;;;;;;1.10;99.90;;;;;;6203971;23;19912;-85
2022/01/16 09:30:28;;;;;;;;;;;1.00;99.90;;;;;;6204221;23;19986;-86
2022/01/16 09:32:57;;;;;;;;;;;1.10;99.90;;;;;;6178123;23;20245;-85
2022/01/16 09:35:22;;;;;;;;;;;1.20;99.90;;;;;;6188205;23;19987;-86
2022/01/16 09:37:48;;;;;;;;;;;1.20;99.90;;;;;;6163204;23;20724;-85
2022/01/16 09:40:15;;;;;;;;;;;1.20;99.90;;;;;;6137598;23;19924;-86
2022/01/16 09:42:41;;;;;;;;;;;1.20;99.90;;;;;;6173504;23;19909;-85
2022/01/16 09:45:09;;;;;;;;;;;1.20;99.90;;;;;;6173680;23;19931;-85
2022/01/16 09:47:35;;;;;;;;;;;1.20;99.90;;;;;;6173128;23;19916;-86
2022/01/16 09:50:04;;;;;;;;;;;1.30;99.90;;;;;;6174190;23;19983;-87
2022/01/16 09:52:31;;;;;;;;;;;1.40;99.90;;;;;;6173329;23;19915;-84
2022/01/16 09:54:56;;;;;;;;;;;1.40;99.90;;;;;;6173317;23;19916;-85
2022/01/16 09:57:22;;;;;;;;;;;1.40;99.90;;;;;;6172761;23;19936;-84
2022/01/16 09:59:50;;;;;;;;;;;1.60;99.90;;;;;;6147760;23;19947;-84
2022/01/16 10:02:24;;;;;;;;;;;1.50;99.90;;;;;;6155092;23;19913;-85
2022/01/16 10:04:49;;;;;;;;;;;1.60;99.90;;;;;;6170500;23;19919;-86
2022/01/16 10:07:16;;;;;;;;;;;1.70;99.90;;;;;;6175064;23;19913;-85
2022/01/16 10:09:43;;;;;;;;;;;1.70;99.90;;;;;;6147236;23;20240;-84
2022/01/16 10:12:19;;;;;;;;;;;1.80;99.90;;;;;;6172231;23;20412;-84
2022/01/16 10:15:23;;;;;;;;;;;1.80;99.90;;;;;;6174276;23;19908;-84
2022/01/16 10:17:50;;;;;;;;;;;1.80;99.90;;;;;;6158700;23;19912;-85
2022/01/16 10:20:19;;;;;;;;;;;1.70;99.90;;;;;;6132515;23;19923;-84
2022/01/16 10:22:46;;;;;;;;;;;1.80;99.90;;;;;;6144724;23;19912;-87
2022/01/16 10:25:13;;;;;;;;;;;1.70;99.90;;;;;;6157403;23;19992;-84
2022/01/16 10:27:39;;;;;;;;;;;1.80;99.90;;;;;;6147957;23;20400;-86
2022/01/16 10:30:07;;;;;;;;;;;1.80;99.90;;;;;;6173902;23;19908;-85
2022/01/16 10:32:36;;;;;;;;;;;1.80;99.90;;;;;;6172127;23;20285;-83
2022/01/16 10:35:07;;;;;;;;;;;1.80;99.90;;;;;;6148934;23;19908;-85
2022/01/16 10:37:33;;;;;;;;;;;1.80;99.90;;;;;;6173055;23;19913;-84
2022/01/16 10:40:01;;;;;;;;;;;1.90;99.90;;;;;;6172963;23;20391;-84
2022/01/16 10:42:29;;;;;;;;;;;1.80;99.90;;;;;;6134245;23;19939;-84
2022/01/16 10:45:00;;;;;;;;;;;1.80;99.90;;;;;;6173718;23;19913;-84
2022/01/16 10:47:31;;;;;;;;;;;1.70;99.90;;;;;;6147608;23;19916;-82
2022/01/16 10:49:57;;;;;;;;;;;1.60;99.90;;;;;;6171802;23;20308;-85
2022/01/16 10:52:23;;;;;;;;;;;1.70;99.90;;;;;;6146876;23;20210;-84
2022/01/16 10:54:48;;;;;;;;;;;1.70;99.90;;;;;;6156656;23;19922;-85
2022/01/16 10:57:19;;;;;;;;;;;1.70;99.90;;;;;;6171836;23;19916;-89
2022/01/16 10:59:44;;;;;;;;;;;1.70;99.90;;;;;;6171822;23;19932;-85
2022/01/16 11:02:10;;;;;;;;;;;1.70;99.90;;;;;;6170475;23;20325;-86
2022/01/16 11:04:36;;;;;;;;;;;1.80;99.90;;;;;;6172457;23;19908;-84
2022/01/16 11:07:02;;;;;;;;;;;1.80;99.90;;;;;;6130815;23;19912;-84
2022/01/16 11:09:29;;;;;;;;;;;1.80;99.90;;;;;;6170779;23;19912;-83
2022/01/16 11:12:04;;;;;;;;;;;1.80;99.90;;;;;;6168487;23;20359;-83
2022/01/16 11:14:29;;;;;;;;;;;1.80;99.90;;;;;;6145095;23;20044;-86
2022/01/16 11:16:56;;;;;;;;;;;1.80;99.90;;;;;;6170820;23;19947;-84
2022/01/16 11:19:24;;;;;;;;;;;1.90;99.90;;;;;;6171536;23;19932;-83
2022/01/16 11:21:56;;;;;;;;;;;1.90;99.90;;;;;;6170058;23;19913;-84
2022/01/16 11:24:34;;;;;;;;;;;1.90;99.90;;;;;;6171380;23;20012;-83
2022/01/16 11:27:06;;;;;;;;;;;1.90;99.90;;;;;;6169540;23;20300;-83
2022/01/16 11:29:38;;;;;;;;;;;1.90;99.90;;;;;;6169806;23;19912;-82
2022/01/16 11:32:04;;;;;;;;;;;2.00;99.90;;;;;;6157255;23;19919;-83
2022/01/16 11:34:30;;;;;;;;;;;2.00;99.90;;;;;;6086643;23;19912;-82
2022/01/16 11:36:56;;;;;;;;;;;2.00;99.90;;;;;;6145799;23;19920;-83
2022/01/16 11:39:23;;;;;;;;;;;2.00;99.90;;;;;;6172863;23;19943;-84
2022/01/16 11:41:54;;;;;;;;;;;2.10;99.90;;;;;;6173701;23;19964;-84
2022/01/16 11:44:30;;;;;;;;;;;2.10;99.90;;;;;;6173516;23;19918;-84
2022/01/16 11:47:06;;;;;;;;;;;2.20;99.90;;;;;;6173828;23;19951;-85
2022/01/16 11:49:37;;;;;;;;;;;2.20;99.90;;;;;;6157012;23;20357;-84
2022/01/16 11:52:07;;;;;;;;;;;2.30;99.90;;;;;;6144613;23;19912;-83
2022/01/16 11:54:34;;;;;;;;;;;2.30;99.90;;;;;;6174942;23;20309;-83
2022/01/16 11:57:03;;;;;;;;;;;2.30;99.90;;;;;;6172243;23;20435;-85
2022/01/16 11:59:34;;;;;;;;;;;2.30;99.90;;;;;;6159708;23;19968;-84
2022/01/16 12:02:16;;;;;;;;;;;2.30;99.90;;;;;;6132229;23;19935;-85
2022/01/16 12:04:54;;;;;;;;;;;2.40;99.90;;;;;;6147495;23;19912;-86
2022/01/16 12:07:21;;;;;;;;;;;2.40;99.90;;;;;;6130595;23;21700;-83
2022/01/16 12:09:49;;;;;;;;;;;2.50;99.90;;;;;;6110208;23;19983;-88
2022/01/16 12:12:14;;;;;;;;;;;2.50;99.90;;;;;;6143920;23;19966;-85
2022/01/16 12:14:47;;;;;;;;;;;2.50;99.90;;;;;;6147318;23;20284;-84
2022/01/16 12:17:24;;;;;;;;;;;2.60;99.90;;;;;;6124219;23;19919;-88
2022/01/16 12:19:51;;;;;;;;;;;2.60;99.90;;;;;;6140583;23;19912;-85
2022/01/16 12:22:18;;;;;;;;;;;2.60;99.90;;;;;;6156149;23;20312;-87
2022/01/16 12:24:45;;;;;;;;;;;2.60;99.90;;;;;;6172103;23;19940;-85
2022/01/16 12:27:23;;;;;;;;;;;2.50;99.90;;;;;;6171928;23;19919;-84
2022/01/16 12:30:10;;;;;;;;;;;2.60;99.90;;;;;;6170802;23;20608;-86
2022/01/16 12:32:51;;;;;;;;;;;2.60;99.90;;;;;;6123736;23;20404;-84
2022/01/16 12:35:35;;;;;;;;;;;2.70;99.90;;;;;;6170916;23;19912;-85
2022/01/16 12:38:05;;;;;;;;;;;2.70;99.90;;;;;;6145095;23;19916;-88
2022/01/16 12:40:33;;;;;;;;;;;2.70;99.90;;;;;;6144953;23;20392;-85
2022/01/16 12:43:22;;;;;;;;;;;2.70;99.90;;;;;;6118006;23;19919;-86
2022/01/16 12:45:47;;;;;;;;;;;2.70;99.90;;;;;;6160524;23;19935;-82
2022/01/16 12:48:16;;;;;;;;;;;2.70;99.90;;;;;;6141168;23;20218;-87
2022/01/16 12:50:45;;;;;;;;;;;2.70;99.90;;;;;;6126343;23;19987;-86
2022/01/16 12:53:11;;;;;;;;;;;2.70;99.90;;;;;;6149404;23;19982;-86
2022/01/16 12:55:39;;;;;;;;;;;2.80;99.90;;;;;;6138648;23;20318;-85
2022/01/16 12:58:14;;;;;;;;;;;2.70;99.90;;;;;;6141734;23;19916;-86
2022/01/16 13:01:02;;;;;;;;;;;2.80;99.90;;;;;;6144669;23;20463;-85
2022/01/16 13:03:57;;;;;;;;;;;2.80;99.90;;;;;;6111567;23;19913;-87
2022/01/16 13:06:22;;;;;;;;;;;2.80;99.90;;;;;;6156353;23;19972;-83
2022/01/16 13:08:58;;;;;;;;;;;2.80;99.90;;;;;;6119007;23;19909;-84
2022/01/16 13:11:26;;;;;;;;;;;2.80;99.90;;;;;;6142834;23;19939;-83
2022/01/16 13:13:51;;;;;;;;;;;2.90;99.90;;;;;;6171684;23;19916;-83
2022/01/16 13:16:20;;;;;;;;;;;2.90;99.90;;;;;;6158154;23;20280;-83
2022/01/16 13:19:05;;;;;;;;;;;2.90;99.90;;;;;;6157015;23;19935;-85
2022/01/16 13:21:41;;;;;;;;;;;2.90;99.90;;;;;;6133222;23;19937;-84
2022/01/16 13:24:06;;;;;;;;;;;2.90;99.90;;;;;;6146407;23;19971;-84
2022/01/16 13:26:32;;;;;;;;;;;2.90;99.90;;;;;;6152734;23;19936;-83
2022/01/16 13:28:59;;;;;;;;;;;3.00;99.90;;;;;;6143880;23;20418;-83
2022/01/16 13:31:25;;;;;;;;;;;3.00;99.90;;;;;;6143231;23;20322;-83
2022/01/16 13:34:13;;;;;;;;;;;3.00;99.90;;;;;;6157286;23;19923;-83
2022/01/16 13:36:49;;;;;;;;;;;3.00;99.90;;;;;;6152549;23;20327;-83
2022/01/16 13:39:14;;;;;;;;;;;3.10;99.90;;;;;;6173968;23;19951;-83
2022/01/16 13:41:43;;;;;;;;;;;3.10;99.90;;;;;;6172805;23;19923;-84
2022/01/16 13:44:38;;;;;;;;;;;3.10;99.90;;;;;;6172205;23;20402;-84
2022/01/16 13:47:04;;;;;;;;;;;3.10;99.90;;;;;;6140292;23;19974;-82
2022/01/16 13:49:52;;;;;;;;;;;3.10;99.90;;;;;;6172508;23;20361;-85
2022/01/16 13:55:35;;;;;;;;;;;3.10;99.90;;;;;;6096942;23;19919;-84
2022/01/16 13:58:12;;;;;;;;;;;3.10;99.90;;;;;;6108601;23;19913;-86
2022/01/16 14:00:43;;;;;;;;;;;3.20;99.90;;;;;;6085059;23;19936;-87
2022/01/16 14:13:15;;;;;;;;;;;3.20;99.90;;;;;;6026215;23;20398;-86
2022/01/16 14:24:01;;;;;;;;;;;3.30;99.90;;;;;;6205451;23;19987;-87
2022/01/16 14:26:27;;;;;;;;;;;3.20;99.90;;;;;;6205253;23;22416;-86
2022/01/16 14:28:52;;;;;;;;;;;3.30;99.90;;;;;;6204848;23;19975;-87
2022/01/16 14:31:18;;;;;;;;;;;3.30;99.90;;;;;;6204157;23;19911;-86
2022/01/16 14:33:52;;;;;;;;;;;3.30;99.90;;;;;;6193086;23;19936;-87
2022/01/16 14:36:24;;;;;;;;;;;3.30;99.90;;;;;;6206809;23;20287;-87
2022/01/16 14:38:50;;;;;;;;;;;3.30;99.90;;;;;;6194931;23;19969;-87
2022/01/16 14:41:17;;;;;;;;;;;3.40;99.90;;;;;;6177934;23;19971;-87
2022/01/16 14:43:54;;;;;;;;;;;3.30;99.90;;;;;;6165488;23;20236;-87
2022/01/16 14:46:20;;;;;;;;;;;3.30;99.90;;;;;;6152394;23;20043;-87
2022/01/16 14:48:47;;;;;;;;;;;3.40;99.90;;;;;;6173161;23;19916;-87
2022/01/16 14:51:13;;;;;;;;;;;3.40;99.90;;;;;;6171639;23;20288;-87
2022/01/16 14:57:09;;;;;;;;;;;3.40;99.90;;;;;;6092114;23;19945;-87
2022/01/16 15:05:56;;;;;;;;;;;3.40;99.90;;;;;;6101696;23;19919;-85
2022/01/16 15:08:26;;;;;;;;;;;3.40;99.90;;;;;;6125869;23;20030;-86
2022/01/16 15:10:54;;;;;;;;;;;3.40;99.90;;;;;;6112076;23;19940;-85
2022/01/16 15:13:20;;;;;;;;;;;3.40;99.90;;;;;;6117339;23;19912;-85
2022/01/16 15:15:45;;;;;;;;;;;3.40;99.90;;;;;;6145835;23;19908;-85
2022/01/16 15:18:12;;;;;;;;;;;3.40;99.90;;;;;;6174684;23;19919;-85
2022/01/16 15:20:40;;;;;;;;;;;3.40;99.90;;;;;;6174267;23;19916;-87
2022/01/16 15:26:14;;;;;;;;;;;3.30;99.90;;;;;;6119159;23;20476;-84
2022/01/16 15:29:19;;;;;;;;;;;3.30;99.90;;;;;;6082391;23;20359;-85
2022/01/16 15:32:19;;;;;;;;;;;3.30;99.90;;;;;;6040572;23;20326;-85
2022/01/16 15:34:45;;;;;;;;;;;3.40;99.90;;;;;;6099408;23;20936;-85
2022/01/16 15:39:39;;;;;;;;;;;3.40;99.90;;;;;;6116764;23;20239;-84
2022/01/16 15:42:05;;;;;;;;;;;3.40;99.90;;;;;;6106517;23;19924;-84
2022/01/16 15:44:34;;;;;;;;;;;3.40;99.90;;;;;;6112010;23;19920;-83
2022/01/16 15:47:03;;;;;;;;;;;3.40;99.90;;;;;;6096114;23;20353;-84
2022/01/16 15:52:32;;;;;;;;;;;3.40;99.90;;;;;;6104164;23;19924;-84
2022/01/16 15:55:06;;;;;;;;;;;3.40;99.90;;;;;;6124381;23;19922;-84
2022/01/16 15:57:33;;;;;;;;;;;3.50;99.90;;;;;;6084514;23;19913;-84
2022/01/16 15:59:58;;;;;;;;;;;3.50;99.90;;;;;;6131518;23;19940;-84
2022/01/16 16:02:24;;;;;;;;;;;3.50;99.90;;;;;;6143415;23;20249;-83
2022/01/16 16:04:50;;;;;;;;;;;3.50;99.90;;;;;;6085601;23;20531;-84